PWSweather.com
Personal Weather Stations
Station Observations
OINOFYTA
Oinofyta Greece, OinofytaGR 320 11

Oinofyta GreeceOinofytaGR 320 11

Lat: 38.3080648, Lon: 23.6391172

Elevation: 354

Station Type: ProWeatherStation 1080

http://oinofytaweather.gr/

High Low Average
Temperature 55.0°F12.8°C 36.0°F2.2°C 44.1°F6.7°C
Dew Point 39.0°F3.9°C 31.5°F-0.3°C 34.7°F1.5°C
Winds 5.7 mph 9.2 kmh Calm Calm 2.0 mph WSW3.2 kmh WSW
Wind Gusts 12.1 mph19.5 kmh 0.7 mph1.1 kmh 6.0 mph9.7 kmh
Humidity 93% 41% 72%
Pressure 30.15 in1021.0 mb 30.02 in1016.6 mb -
Precipitation 0.00 in0.0 mm - -
Hour Temp Dew Point Humidity Winds Wind Gusts Pressure Precip Precip Rate Daily Precip Total
12:00 AM 41.7°F5.4°C 39.0°F3.9°C 90% 2.1 mph WSW3.4 kmh WSW 6.0 mph9.7 kmh 30.02 in1016.6 mb 0.00 in0.0 mm 0.00 in0.0 mm 0.00 in0.0 mm
12:05 AM 41.5°F5.3°C 38.8°F3.8°C 90% 2.3 mph SW3.7 kmh SW 6.0 mph9.7 kmh 30.02 in1016.6 mb 0.00 in0.0 mm 0.00 in0.0 mm 0.00 in0.0 mm
12:10 AM 41.2°F5.1°C 38.8°F3.8°C 91% 2.5 mph SW4.0 kmh SW 6.0 mph9.7 kmh 30.02 in1016.6 mb 0.00 in0.0 mm 0.00 in0.0 mm 0.00 in0.0 mm
12:15 AM 40.8°F4.9°C 38.7°F3.7°C 92% 2.5 mph SW4.0 kmh SW 5.4 mph8.7 kmh 30.02 in1016.6 mb 0.00 in0.0 mm 0.00 in0.0 mm 0.00 in0.0 mm
12:20 AM 40.5°F4.7°C 38.3°F3.5°C 92% 2.1 mph SW3.4 kmh SW 5.4 mph8.7 kmh 30.02 in1016.6 mb 0.00 in0.0 mm 0.00 in0.0 mm 0.00 in0.0 mm
12:25 AM 40.3°F4.6°C 38.4°F3.6°C 93% 1.7 mph SW2.7 kmh SW 4.5 mph7.2 kmh 30.02 in1016.6 mb 0.00 in0.0 mm 0.00 in0.0 mm 0.00 in0.0 mm
12:30 AM 40.3°F4.6°C 38.4°F3.6°C 93% 2.5 mph SW4.0 kmh SW 6.9 mph11.1 kmh 30.02 in1016.6 mb 0.00 in0.0 mm 0.00 in0.0 mm 0.00 in0.0 mm
12:35 AM 40.5°F4.7°C 38.6°F3.7°C 93% 3.3 mph SW5.3 kmh SW 6.9 mph11.1 kmh 30.02 in1016.6 mb 0.00 in0.0 mm 0.00 in0.0 mm 0.00 in0.0 mm
12:40 AM 40.6°F4.8°C 38.5°F3.6°C 92% 3.3 mph WSW5.3 kmh WSW 6.9 mph11.1 kmh 30.02 in1016.6 mb 0.00 in0.0 mm 0.00 in0.0 mm 0.00 in0.0 mm
12:45 AM 40.6°F4.8°C 38.5°F3.6°C 92% 3.2 mph SW5.1 kmh SW 6.0 mph9.7 kmh 30.02 in1016.6 mb 0.00 in0.0 mm 0.00 in0.0 mm 0.00 in0.0 mm
12:50 AM 40.6°F4.8°C 38.5°F3.6°C 92% 3.3 mph SW5.3 kmh SW 6.9 mph11.1 kmh 30.02 in1016.6 mb 0.00 in0.0 mm 0.00 in0.0 mm 0.00 in0.0 mm
12:55 AM 40.8°F4.9°C 38.7°F3.7°C 92% 3.4 mph SW5.5 kmh SW 6.9 mph11.1 kmh 30.02 in1016.6 mb 0.00 in0.0 mm 0.00 in0.0 mm 0.00 in0.0 mm
01:00 AM 41.0°F5.0°C 38.6°F3.7°C 91% 3.6 mph WSW5.8 kmh WSW 8.3 mph13.4 kmh 30.02 in1016.6 mb 0.00 in0.0 mm 0.00 in0.0 mm 0.00 in0.0 mm
01:05 AM 41.2°F5.1°C 38.8°F3.8°C 91% 3.7 mph WSW6.0 kmh WSW 9.8 mph15.8 kmh 30.02 in1016.6 mb 0.00 in0.0 mm 0.00 in0.0 mm 0.00 in0.0 mm
01:10 AM 41.4°F5.2°C 38.7°F3.7°C 90% 4.3 mph WSW6.9 kmh WSW 9.8 mph15.8 kmh 30.03 in1016.9 mb 0.00 in0.0 mm 0.00 in0.0 mm 0.00 in0.0 mm
01:15 AM 41.4°F5.2°C 38.4°F3.6°C 89% 4.2 mph WSW6.8 kmh WSW 8.3 mph13.4 kmh 30.02 in1016.6 mb 0.00 in0.0 mm 0.00 in0.0 mm 0.00 in0.0 mm
01:20 AM 41.2°F5.1°C 38.2°F3.4°C 89% 3.7 mph W6.0 kmh W 7.6 mph12.2 kmh 30.02 in1016.6 mb 0.00 in0.0 mm 0.00 in0.0 mm 0.00 in0.0 mm
01:25 AM 41.4°F5.2°C 38.4°F3.6°C 89% 3.9 mph W6.3 kmh W 8.3 mph13.4 kmh 30.02 in1016.6 mb 0.00 in0.0 mm 0.00 in0.0 mm 0.00 in0.0 mm
01:30 AM 41.4°F5.2°C 38.1°F3.4°C 88% 3.7 mph W6.0 kmh W 8.3 mph13.4 kmh 30.03 in1016.9 mb 0.00 in0.0 mm 0.00 in0.0 mm 0.00 in0.0 mm
01:35 AM 41.4°F5.2°C 38.1°F3.4°C 88% 3.3 mph W5.3 kmh W 8.3 mph13.4 kmh 30.02 in1016.6 mb 0.00 in0.0 mm 0.00 in0.0 mm 0.00 in0.0 mm
01:40 AM 41.4°F5.2°C 38.1°F3.4°C 88% 2.9 mph W4.7 kmh W 8.3 mph13.4 kmh 30.03 in1016.9 mb 0.00 in0.0 mm 0.00 in0.0 mm 0.00 in0.0 mm
01:45 AM 41.2°F5.1°C 37.9°F3.3°C 88% 2.1 mph WSW3.4 kmh WSW 8.3 mph13.4 kmh 30.03 in1016.9 mb 0.00 in0.0 mm 0.00 in0.0 mm 0.00 in0.0 mm
01:50 AM 41.0°F5.0°C 37.7°F3.2°C 88% 1.3 mph WSW2.1 kmh WSW 4.5 mph7.2 kmh 30.03 in1016.9 mb 0.00 in0.0 mm 0.00 in0.0 mm 0.00 in0.0 mm
01:55 AM 40.8°F4.9°C 37.5°F3.1°C 88% 0.6 mph WSW1.0 kmh WSW 3.1 mph5.0 kmh 30.04 in1017.3 mb 0.00 in0.0 mm 0.00 in0.0 mm 0.00 in0.0 mm
02:00 AM 40.6°F4.8°C 37.4°F3.0°C 88% 0.4 mph WSW0.6 kmh WSW 3.1 mph5.0 kmh 30.04 in1017.3 mb 0.00 in0.0 mm 0.00 in0.0 mm 0.00 in0.0 mm
02:05 AM 40.6°F4.8°C 37.7°F3.2°C 89% 0.8 mph WSW1.3 kmh WSW 5.4 mph8.7 kmh 30.04 in1017.3 mb 0.00 in0.0 mm 0.00 in0.0 mm 0.00 in0.0 mm
02:10 AM 40.6°F4.8°C 37.7°F3.2°C 89% 1.9 mph SW3.1 kmh SW 5.4 mph8.7 kmh 30.03 in1016.9 mb 0.00 in0.0 mm 0.00 in0.0 mm 0.00 in0.0 mm
02:15 AM 40.5°F4.7°C 37.5°F3.1°C 89% 2.5 mph SW4.0 kmh SW 6.9 mph11.1 kmh 30.03 in1016.9 mb 0.00 in0.0 mm 0.00 in0.0 mm 0.00 in0.0 mm
02:20 AM 40.3°F4.6°C 37.3°F2.9°C 89% 2.9 mph WSW4.7 kmh WSW 6.9 mph11.1 kmh 30.03 in1016.9 mb 0.00 in0.0 mm 0.00 in0.0 mm 0.00 in0.0 mm
02:25 AM 40.5°F4.7°C 37.5°F3.1°C 89% 3.6 mph W5.8 kmh W 7.6 mph12.2 kmh 30.04 in1017.3 mb 0.00 in0.0 mm 0.00 in0.0 mm 0.00 in0.0 mm
02:30 AM 40.3°F4.6°C 37.3°F2.9°C 89% 3.7 mph W6.0 kmh W 7.6 mph12.2 kmh 30.04 in1017.3 mb 0.00 in0.0 mm 0.00 in0.0 mm 0.00 in0.0 mm
02:35 AM 40.3°F4.6°C 37.0°F2.8°C 88% 2.6 mph WSW4.2 kmh WSW 6.9 mph11.1 kmh 30.04 in1017.3 mb 0.00 in0.0 mm 0.00 in0.0 mm 0.00 in0.0 mm
02:40 AM 40.5°F4.7°C 37.2°F2.9°C 88% 2.2 mph WSW3.5 kmh WSW 5.4 mph8.7 kmh 30.04 in1017.3 mb 0.00 in0.0 mm 0.00 in0.0 mm 0.00 in0.0 mm
02:45 AM 40.5°F4.7°C 37.2°F2.9°C 88% 3.0 mph WSW4.8 kmh WSW 7.6 mph12.2 kmh 30.04 in1017.3 mb 0.00 in0.0 mm 0.00 in0.0 mm 0.00 in0.0 mm
02:50 AM 40.6°F4.8°C 37.1°F2.8°C 87% 3.8 mph W6.1 kmh W 7.6 mph12.2 kmh 30.04 in1017.3 mb 0.00 in0.0 mm 0.00 in0.0 mm 0.00 in0.0 mm
02:55 AM 40.6°F4.8°C 36.8°F2.7°C 86% 3.8 mph W6.1 kmh W 7.6 mph12.2 kmh 30.04 in1017.3 mb 0.00 in0.0 mm 0.00 in0.0 mm 0.00 in0.0 mm
03:00 AM 40.3°F4.6°C 36.4°F2.4°C 86% 2.6 mph WSW4.2 kmh WSW 7.6 mph12.2 kmh 30.04 in1017.3 mb 0.00 in0.0 mm 0.00 in0.0 mm 0.00 in0.0 mm
03:05 AM 40.1°F4.5°C 36.5°F2.5°C 87% 2.1 mph WSW3.4 kmh WSW 6.0 mph9.7 kmh 30.04 in1017.3 mb 0.00 in0.0 mm 0.00 in0.0 mm 0.00 in0.0 mm
03:10 AM 39.7°F4.3°C 36.2°F2.3°C 87% 2.2 mph SW3.5 kmh SW 6.0 mph9.7 kmh 30.04 in1017.3 mb 0.00 in0.0 mm 0.00 in0.0 mm 0.00 in0.0 mm
03:15 AM 39.6°F4.2°C 36.3°F2.4°C 88% 2.1 mph WSW3.4 kmh WSW 5.4 mph8.7 kmh 30.04 in1017.3 mb 0.00 in0.0 mm 0.00 in0.0 mm 0.00 in0.0 mm
03:20 AM 39.6°F4.2°C 36.3°F2.4°C 88% 2.1 mph WSW3.4 kmh WSW 6.9 mph11.1 kmh 30.05 in1017.6 mb 0.00 in0.0 mm 0.00 in0.0 mm 0.00 in0.0 mm
03:25 AM 39.7°F4.3°C 36.2°F2.3°C 87% 2.5 mph WSW4.0 kmh WSW 6.9 mph11.1 kmh 30.05 in1017.6 mb 0.00 in0.0 mm 0.00 in0.0 mm 0.00 in0.0 mm
03:30 AM 39.9°F4.4°C 36.1°F2.3°C 86% 3.4 mph W5.5 kmh W 10.7 mph17.2 kmh 30.05 in1017.6 mb 0.00 in0.0 mm 0.00 in0.0 mm 0.00 in0.0 mm
03:35 AM 39.9°F4.4°C 36.1°F2.3°C 86% 3.9 mph W6.3 kmh W 10.7 mph17.2 kmh 30.05 in1017.6 mb 0.00 in0.0 mm 0.00 in0.0 mm 0.00 in0.0 mm
03:40 AM 39.9°F4.4°C 36.1°F2.3°C 86% 3.2 mph W5.1 kmh W 8.3 mph13.4 kmh 30.05 in1017.6 mb 0.00 in0.0 mm 0.00 in0.0 mm 0.00 in0.0 mm
03:45 AM 39.9°F4.4°C 35.8°F2.1°C 85% 2.3 mph W3.7 kmh W 7.6 mph12.2 kmh 30.04 in1017.3 mb 0.00 in0.0 mm 0.00 in0.0 mm 0.00 in0.0 mm
03:50 AM 39.9°F4.4°C 35.8°F2.1°C 85% 2.5 mph W4.0 kmh W 5.4 mph8.7 kmh 30.05 in1017.6 mb 0.00 in0.0 mm 0.00 in0.0 mm 0.00 in0.0 mm
03:55 AM 39.9°F4.4°C 35.5°F1.9°C 84% 2.9 mph WSW4.7 kmh WSW 6.0 mph9.7 kmh 30.04 in1017.3 mb 0.00 in0.0 mm 0.00 in0.0 mm 0.00 in0.0 mm
04:00 AM 40.1°F4.5°C 35.7°F2.1°C 84% 3.0 mph W4.8 kmh W 6.9 mph11.1 kmh 30.04 in1017.3 mb 0.00 in0.0 mm 0.00 in0.0 mm 0.00 in0.0 mm
04:05 AM 39.9°F4.4°C 35.2°F1.8°C 83% 2.6 mph W4.2 kmh W 6.9 mph11.1 kmh 30.04 in1017.3 mb 0.00 in0.0 mm 0.00 in0.0 mm 0.00 in0.0 mm
04:10 AM 39.7°F4.3°C 35.3°F1.8°C 84% 2.3 mph WSW3.7 kmh WSW 5.4 mph8.7 kmh 30.04 in1017.3 mb 0.00 in0.0 mm 0.00 in0.0 mm 0.00 in0.0 mm
04:15 AM 39.6°F4.2°C 35.1°F1.7°C 84% 2.4 mph WSW3.9 kmh WSW 6.0 mph9.7 kmh 30.05 in1017.6 mb 0.00 in0.0 mm 0.00 in0.0 mm 0.00 in0.0 mm
04:20 AM 39.6°F4.2°C 34.8°F1.6°C 83% 2.9 mph WSW4.7 kmh WSW 6.9 mph11.1 kmh 30.04 in1017.3 mb 0.00 in0.0 mm 0.00 in0.0 mm 0.00 in0.0 mm
04:25 AM 39.6°F4.2°C 34.8°F1.6°C 83% 2.9 mph WSW4.7 kmh WSW 6.9 mph11.1 kmh 30.05 in1017.6 mb 0.00 in0.0 mm 0.00 in0.0 mm 0.00 in0.0 mm
04:30 AM 39.4°F4.1°C 34.7°F1.5°C 83% 2.2 mph WSW3.5 kmh WSW 6.0 mph9.7 kmh 30.04 in1017.3 mb 0.00 in0.0 mm 0.00 in0.0 mm 0.00 in0.0 mm
04:35 AM 39.2°F4.0°C 34.8°F1.6°C 84% 1.5 mph WSW2.4 kmh WSW 4.5 mph7.2 kmh 30.04 in1017.3 mb 0.00 in0.0 mm 0.00 in0.0 mm 0.00 in0.0 mm
04:40 AM 39.2°F4.0°C 34.5°F1.4°C 83% 1.1 mph WSW1.8 kmh WSW 3.8 mph6.1 kmh 30.05 in1017.6 mb 0.00 in0.0 mm 0.00 in0.0 mm 0.00 in0.0 mm
04:45 AM 39.2°F4.0°C 34.5°F1.4°C 83% 1.0 mph WSW1.6 kmh WSW 3.8 mph6.1 kmh 30.04 in1017.3 mb 0.00 in0.0 mm 0.00 in0.0 mm 0.00 in0.0 mm
04:50 AM 39.0°F3.9°C 34.3°F1.3°C 83% 0.8 mph WSW1.3 kmh WSW 3.1 mph5.0 kmh 30.05 in1017.6 mb 0.00 in0.0 mm 0.00 in0.0 mm 0.00 in0.0 mm
04:55 AM 38.8°F3.8°C 34.4°F1.3°C 84% 0.7 mph WSW1.1 kmh WSW 3.8 mph6.1 kmh 30.05 in1017.6 mb 0.00 in0.0 mm 0.00 in0.0 mm 0.00 in0.0 mm
05:00 AM 38.7°F3.7°C 34.3°F1.3°C 84% 1.3 mph WSW2.1 kmh WSW 5.4 mph8.7 kmh 30.05 in1017.6 mb 0.00 in0.0 mm 0.00 in0.0 mm 0.00 in0.0 mm
05:05 AM 38.7°F3.7°C 34.3°F1.3°C 84% 1.8 mph WSW2.9 kmh WSW 5.4 mph8.7 kmh 30.05 in1017.6 mb 0.00 in0.0 mm 0.00 in0.0 mm 0.00 in0.0 mm
05:10 AM 38.7°F3.7°C 34.0°F1.1°C 83% 2.0 mph WSW3.2 kmh WSW 6.9 mph11.1 kmh 30.05 in1017.6 mb 0.00 in0.0 mm 0.00 in0.0 mm 0.00 in0.0 mm
05:15 AM 38.5°F3.6°C 33.8°F1.0°C 83% 2.2 mph WSW3.5 kmh WSW 6.9 mph11.1 kmh 30.05 in1017.6 mb 0.00 in0.0 mm 0.00 in0.0 mm 0.00 in0.0 mm
05:20 AM 38.3°F3.5°C 33.6°F0.9°C 83% 2.5 mph WSW4.0 kmh WSW 6.9 mph11.1 kmh 30.05 in1017.6 mb 0.00 in0.0 mm 0.00 in0.0 mm 0.00 in0.0 mm
05:25 AM 38.5°F3.6°C 33.8°F1.0°C 83% 3.0 mph WSW4.8 kmh WSW 6.9 mph11.1 kmh 30.05 in1017.6 mb 0.00 in0.0 mm 0.00 in0.0 mm 0.00 in0.0 mm
05:30 AM 38.7°F3.7°C 34.0°F1.1°C 83% 3.2 mph W5.1 kmh W 6.9 mph11.1 kmh 30.05 in1017.6 mb 0.00 in0.0 mm 0.00 in0.0 mm 0.00 in0.0 mm
05:35 AM 38.8°F3.8°C 33.8°F1.0°C 82% 3.4 mph W5.5 kmh W 6.9 mph11.1 kmh 30.05 in1017.6 mb 0.00 in0.0 mm 0.00 in0.0 mm 0.00 in0.0 mm
05:40 AM 39.0°F3.9°C 34.0°F1.1°C 82% 2.7 mph WSW4.3 kmh WSW 6.9 mph11.1 kmh 30.05 in1017.6 mb 0.00 in0.0 mm 0.00 in0.0 mm 0.00 in0.0 mm
05:45 AM 38.7°F3.7°C 33.7°F0.9°C 82% 1.9 mph WSW3.1 kmh WSW 5.4 mph8.7 kmh 30.06 in1017.9 mb 0.00 in0.0 mm 0.00 in0.0 mm 0.00 in0.0 mm
05:50 AM 38.3°F3.5°C 33.6°F0.9°C 83% 1.6 mph WSW2.6 kmh WSW 5.4 mph8.7 kmh 30.05 in1017.6 mb 0.00 in0.0 mm 0.00 in0.0 mm 0.00 in0.0 mm
05:55 AM 38.1°F3.4°C 33.4°F0.8°C 83% 1.5 mph WSW2.4 kmh WSW 5.4 mph8.7 kmh 30.06 in1017.9 mb 0.00 in0.0 mm 0.00 in0.0 mm 0.00 in0.0 mm
06:00 AM 37.8°F3.2°C 33.4°F0.8°C 84% 1.2 mph SW1.9 kmh SW 3.1 mph5.0 kmh 30.06 in1017.9 mb 0.00 in0.0 mm 0.00 in0.0 mm 0.00 in0.0 mm
06:05 AM 37.8°F3.2°C 33.4°F0.8°C 84% 1.5 mph SW2.4 kmh SW 5.4 mph8.7 kmh 30.06 in1017.9 mb 0.00 in0.0 mm 0.00 in0.0 mm 0.00 in0.0 mm
06:10 AM 37.8°F3.2°C 33.4°F0.8°C 84% 1.9 mph SW3.1 kmh SW 5.4 mph8.7 kmh 30.06 in1017.9 mb 0.00 in0.0 mm 0.00 in0.0 mm 0.00 in0.0 mm
06:15 AM 37.9°F3.3°C 33.5°F0.8°C 84% 1.9 mph WSW3.1 kmh WSW 5.4 mph8.7 kmh 30.06 in1017.9 mb 0.00 in0.0 mm 0.00 in0.0 mm 0.00 in0.0 mm
06:20 AM 38.1°F3.4°C 33.4°F0.8°C 83% 1.8 mph WSW2.9 kmh WSW 5.4 mph8.7 kmh 30.06 in1017.9 mb 0.00 in0.0 mm 0.00 in0.0 mm 0.00 in0.0 mm
06:25 AM 38.1°F3.4°C 33.1°F0.6°C 82% 1.4 mph SW2.3 kmh SW 3.8 mph6.1 kmh 30.07 in1018.3 mb 0.00 in0.0 mm 0.00 in0.0 mm 0.00 in0.0 mm
06:30 AM 37.9°F3.3°C 32.9°F0.5°C 82% 0.6 mph SW1.0 kmh SW 3.8 mph6.1 kmh 30.06 in1017.9 mb 0.00 in0.0 mm 0.00 in0.0 mm 0.00 in0.0 mm
06:35 AM 37.8°F3.2°C 32.8°F0.4°C 82% 0.1 mph SW0.2 kmh SW 1.6 mph2.6 kmh 30.06 in1017.9 mb 0.00 in0.0 mm 0.00 in0.0 mm 0.00 in0.0 mm
06:40 AM 37.4°F3.0°C 32.7°F0.4°C 83% 0.1 mph WSW0.2 kmh WSW 2.2 mph3.5 kmh 30.07 in1018.3 mb 0.00 in0.0 mm 0.00 in0.0 mm 0.00 in0.0 mm
06:45 AM 37.4°F3.0°C 33.0°F0.6°C 84% 0.5 mph WSW0.8 kmh WSW 3.1 mph5.0 kmh 30.07 in1018.3 mb 0.00 in0.0 mm 0.00 in0.0 mm 0.00 in0.0 mm
06:50 AM 37.2°F2.9°C 32.8°F0.4°C 84% 0.5 mph WSW0.8 kmh WSW 3.1 mph5.0 kmh 30.07 in1018.3 mb 0.00 in0.0 mm 0.00 in0.0 mm 0.00 in0.0 mm
06:55 AM 37.0°F2.8°C 32.7°F0.4°C 84% 0.5 mph SW0.8 kmh SW 2.2 mph3.5 kmh 30.07 in1018.3 mb 0.00 in0.0 mm 0.00 in0.0 mm 0.00 in0.0 mm
07:00 AM 36.9°F2.7°C 32.5°F0.3°C 84% 0.8 mph WSW1.3 kmh WSW 2.2 mph3.5 kmh 30.07 in1018.3 mb 0.00 in0.0 mm 0.00 in0.0 mm 0.00 in0.0 mm
07:05 AM 36.7°F2.6°C 32.6°F0.3°C 85% 0.5 mph WSW0.8 kmh WSW 2.2 mph3.5 kmh 30.08 in1018.6 mb 0.00 in0.0 mm 0.00 in0.0 mm 0.00 in0.0 mm
07:10 AM 36.0°F2.2°C 32.2°F0.1°C 86% 0.4 mph WSW0.6 kmh WSW 2.2 mph3.5 kmh 30.08 in1018.6 mb 0.00 in0.0 mm 0.00 in0.0 mm 0.00 in0.0 mm
07:15 AM 36.0°F2.2°C 32.5°F0.3°C 87% 0.2 mph WSW0.3 kmh WSW 1.6 mph2.6 kmh 30.09 in1019.0 mb 0.00 in0.0 mm 0.00 in0.0 mm 0.00 in0.0 mm
07:20 AM 36.0°F2.2°C 32.5°F0.3°C 87% 0.5 mph WSW0.8 kmh WSW 3.1 mph5.0 kmh 30.09 in1019.0 mb 0.00 in0.0 mm 0.00 in0.0 mm 0.00 in0.0 mm
07:25 AM 36.3°F2.4°C 32.8°F0.4°C 87% 1.2 mph WSW1.9 kmh WSW 4.5 mph7.2 kmh 30.09 in1019.0 mb 0.00 in0.0 mm 0.00 in0.0 mm 0.00 in0.0 mm
07:30 AM 36.7°F2.6°C 32.9°F0.5°C 86% 1.1 mph WSW1.8 kmh WSW 4.5 mph7.2 kmh 30.09 in1019.0 mb 0.00 in0.0 mm 0.00 in0.0 mm 0.00 in0.0 mm
07:35 AM 36.9°F2.7°C 32.5°F0.3°C 84% 1.1 mph WSW1.8 kmh WSW 3.8 mph6.1 kmh 30.09 in1019.0 mb 0.00 in0.0 mm 0.00 in0.0 mm 0.00 in0.0 mm
07:40 AM 36.9°F2.7°C 32.5°F0.3°C 84% 1.5 mph W2.4 kmh W 6.0 mph9.7 kmh 30.09 in1019.0 mb 0.00 in0.0 mm 0.00 in0.0 mm 0.00 in0.0 mm
07:45 AM 37.0°F2.8°C 32.7°F0.4°C 84% 1.7 mph W2.7 kmh W 6.0 mph9.7 kmh 30.10 in1019.3 mb 0.00 in0.0 mm 0.00 in0.0 mm 0.00 in0.0 mm
07:50 AM 37.0°F2.8°C 32.7°F0.4°C 84% 1.7 mph WSW2.7 kmh WSW 6.0 mph9.7 kmh 30.10 in1019.3 mb 0.00 in0.0 mm 0.00 in0.0 mm 0.00 in0.0 mm
07:55 AM 37.0°F2.8°C 32.7°F0.4°C 84% 1.4 mph SW2.3 kmh SW 4.5 mph7.2 kmh 30.10 in1019.3 mb 0.00 in0.0 mm 0.00 in0.0 mm 0.00 in0.0 mm
08:00 AM 36.9°F2.7°C 32.5°F0.3°C 84% 0.9 mph SW1.4 kmh SW 3.8 mph6.1 kmh 30.10 in1019.3 mb 0.00 in0.0 mm 0.00 in0.0 mm 0.00 in0.0 mm
08:05 AM 37.0°F2.8°C 32.7°F0.4°C 84% 0.8 mph WSW1.3 kmh WSW 3.8 mph6.1 kmh 30.10 in1019.3 mb 0.00 in0.0 mm 0.00 in0.0 mm 0.00 in0.0 mm
08:10 AM 37.2°F2.9°C 32.5°F0.3°C 83% 0.6 mph WSW1.0 kmh WSW 3.1 mph5.0 kmh 30.10 in1019.3 mb 0.00 in0.0 mm 0.00 in0.0 mm 0.00 in0.0 mm
08:15 AM 37.4°F3.0°C 32.7°F0.4°C 83% 0.2 mph SW0.3 kmh SW 3.1 mph5.0 kmh 30.10 in1019.3 mb 0.00 in0.0 mm 0.00 in0.0 mm 0.00 in0.0 mm
08:20 AM 37.8°F3.2°C 33.1°F0.6°C 83% 0.3 mph SW0.5 kmh SW 2.2 mph3.5 kmh 30.11 in1019.6 mb 0.00 in0.0 mm 0.00 in0.0 mm 0.00 in0.0 mm
08:25 AM 37.9°F3.3°C 33.2°F0.7°C 83% 0.3 mph SW0.5 kmh SW 2.2 mph3.5 kmh 30.10 in1019.3 mb 0.00 in0.0 mm 0.00 in0.0 mm 0.00 in0.0 mm
08:30 AM 38.5°F3.6°C 33.5°F0.8°C 82% 0.2 mph WSW0.3 kmh WSW 3.1 mph5.0 kmh 30.11 in1019.6 mb 0.00 in0.0 mm 0.00 in0.0 mm 0.00 in0.0 mm
08:35 AM 38.7°F3.7°C 33.7°F0.9°C 82% 0.1 mph WSW0.2 kmh WSW 3.1 mph5.0 kmh 30.11 in1019.6 mb 0.00 in0.0 mm 0.00 in0.0 mm 0.00 in0.0 mm
08:40 AM 38.8°F3.8°C 33.5°F0.8°C 81% Calm Calm 0.7 mph1.1 kmh 30.11 in1019.6 mb 0.00 in0.0 mm 0.00 in0.0 mm 0.00 in0.0 mm
08:45 AM 38.8°F3.8°C 33.8°F1.0°C 82% 0.1 mph SW0.2 kmh SW 1.6 mph2.6 kmh 30.11 in1019.6 mb 0.00 in0.0 mm 0.00 in0.0 mm 0.00 in0.0 mm
08:50 AM 39.0°F3.9°C 33.7°F0.9°C 81% 0.5 mph SW0.8 kmh SW 4.5 mph7.2 kmh 30.11 in1019.6 mb 0.00 in0.0 mm 0.00 in0.0 mm 0.00 in0.0 mm
08:55 AM 39.2°F4.0°C 34.2°F1.2°C 82% 1.1 mph SW1.8 kmh SW 4.5 mph7.2 kmh 30.11 in1019.6 mb 0.00 in0.0 mm 0.00 in0.0 mm 0.00 in0.0 mm
09:00 AM 39.2°F4.0°C 33.9°F1.1°C 81% 1.0 mph SW1.6 kmh SW 4.5 mph7.2 kmh 30.11 in1019.6 mb 0.00 in0.0 mm 0.00 in0.0 mm 0.00 in0.0 mm
09:05 AM 39.6°F4.2°C 34.5°F1.4°C 82% 1.3 mph WSW2.1 kmh WSW 3.8 mph6.1 kmh 30.11 in1019.6 mb 0.00 in0.0 mm 0.00 in0.0 mm 0.00 in0.0 mm
09:10 AM 40.1°F4.5°C 34.7°F1.5°C 81% 1.9 mph W3.1 kmh W 5.4 mph8.7 kmh 30.11 in1019.6 mb 0.00 in0.0 mm 0.00 in0.0 mm 0.00 in0.0 mm
09:15 AM 40.6°F4.8°C 35.3°F1.8°C 81% 1.9 mph W3.1 kmh W 5.4 mph8.7 kmh 30.11 in1019.6 mb 0.00 in0.0 mm 0.00 in0.0 mm 0.00 in0.0 mm
09:20 AM 41.2°F5.1°C 35.5°F1.9°C 80% 1.9 mph W3.1 kmh W 5.4 mph8.7 kmh 30.12 in1020.0 mb 0.00 in0.0 mm 0.00 in0.0 mm 0.00 in0.0 mm
09:25 AM 41.7°F5.4°C 35.4°F1.9°C 78% 2.3 mph WSW3.7 kmh WSW 7.6 mph12.2 kmh 30.11 in1019.6 mb 0.00 in0.0 mm 0.00 in0.0 mm 0.00 in0.0 mm
09:30 AM 42.4°F5.8°C 35.8°F2.1°C 77% 2.4 mph WSW3.9 kmh WSW 7.6 mph12.2 kmh 30.11 in1019.6 mb 0.00 in0.0 mm 0.00 in0.0 mm 0.00 in0.0 mm
09:35 AM 43.0°F6.1°C 35.3°F1.8°C 74% 2.4 mph WSW3.9 kmh WSW 7.6 mph12.2 kmh 30.11 in1019.6 mb 0.00 in0.0 mm 0.00 in0.0 mm 0.00 in0.0 mm
09:40 AM 43.5°F6.4°C 35.8°F2.1°C 74% 2.9 mph WSW4.7 kmh WSW 8.3 mph13.4 kmh 30.12 in1020.0 mb 0.00 in0.0 mm 0.00 in0.0 mm 0.00 in0.0 mm
09:45 AM 43.9°F6.6°C 35.8°F2.1°C 73% 3.7 mph W6.0 kmh W 9.8 mph15.8 kmh 30.12 in1020.0 mb 0.00 in0.0 mm 0.00 in0.0 mm 0.00 in0.0 mm
09:50 AM 44.4°F6.9°C 36.0°F2.2°C 72% 3.6 mph W5.8 kmh W 9.8 mph15.8 kmh 30.12 in1020.0 mb 0.00 in0.0 mm 0.00 in0.0 mm 0.00 in0.0 mm
09:55 AM 45.0°F7.2°C 36.1°F2.3°C 71% 3.0 mph W4.8 kmh W 6.9 mph11.1 kmh 30.12 in1020.0 mb 0.00 in0.0 mm 0.00 in0.0 mm 0.00 in0.0 mm
10:00 AM 45.7°F7.6°C 36.5°F2.5°C 70% 2.5 mph WSW4.0 kmh WSW 6.9 mph11.1 kmh 30.13 in1020.3 mb 0.00 in0.0 mm 0.00 in0.0 mm 0.00 in0.0 mm
10:05 AM 46.2°F7.9°C 36.6°F2.6°C 69% 2.2 mph WSW3.5 kmh WSW 9.2 mph14.8 kmh 30.13 in1020.3 mb 0.00 in0.0 mm 0.00 in0.0 mm 0.00 in0.0 mm
10:10 AM 46.8°F8.2°C 37.1°F2.8°C 69% 2.2 mph WSW3.5 kmh WSW 9.2 mph14.8 kmh 30.13 in1020.3 mb 0.00 in0.0 mm 0.00 in0.0 mm 0.00 in0.0 mm
10:15 AM 47.1°F8.4°C 36.7°F2.6°C 67% 2.8 mph WSW4.5 kmh WSW 6.9 mph11.1 kmh 30.13 in1020.3 mb 0.00 in0.0 mm 0.00 in0.0 mm 0.00 in0.0 mm
10:20 AM 47.5°F8.6°C 37.1°F2.8°C 67% 3.1 mph WSW5.0 kmh WSW 6.9 mph11.1 kmh 30.13 in1020.3 mb 0.00 in0.0 mm 0.00 in0.0 mm 0.00 in0.0 mm
10:25 AM 48.0°F8.9°C 37.2°F2.9°C 66% 2.8 mph WSW4.5 kmh WSW 6.9 mph11.1 kmh 30.14 in1020.7 mb 0.00 in0.0 mm 0.00 in0.0 mm 0.00 in0.0 mm
10:30 AM 48.2°F9.0°C 36.6°F2.6°C 64% 2.9 mph WSW4.7 kmh WSW 8.3 mph13.4 kmh 30.14 in1020.7 mb 0.00 in0.0 mm 0.00 in0.0 mm 0.00 in0.0 mm
10:35 AM 48.4°F9.1°C 36.8°F2.7°C 64% 3.0 mph WSW4.8 kmh WSW 8.3 mph13.4 kmh 30.14 in1020.7 mb 0.00 in0.0 mm 0.00 in0.0 mm 0.00 in0.0 mm
10:40 AM 48.7°F9.3°C 37.1°F2.8°C 64% 2.9 mph WSW4.7 kmh WSW 6.9 mph11.1 kmh 30.14 in1020.7 mb 0.00 in0.0 mm 0.00 in0.0 mm 0.00 in0.0 mm
10:45 AM 49.1°F9.5°C 37.1°F2.8°C 63% 2.7 mph WSW4.3 kmh WSW 7.6 mph12.2 kmh 30.14 in1020.7 mb 0.00 in0.0 mm 0.00 in0.0 mm 0.00 in0.0 mm
10:50 AM 49.6°F9.8°C 37.6°F3.1°C 63% 2.5 mph SW4.0 kmh SW 7.6 mph12.2 kmh 30.14 in1020.7 mb 0.00 in0.0 mm 0.00 in0.0 mm 0.00 in0.0 mm
10:55 AM 50.0°F10.0°C 37.5°F3.1°C 62% 2.4 mph WSW3.9 kmh WSW 6.0 mph9.7 kmh 30.14 in1020.7 mb 0.00 in0.0 mm 0.00 in0.0 mm 0.00 in0.0 mm
11:00 AM 50.5°F10.3°C 37.6°F3.1°C 61% 2.7 mph WSW4.3 kmh WSW 8.3 mph13.4 kmh 30.13 in1020.3 mb 0.00 in0.0 mm 0.00 in0.0 mm 0.00 in0.0 mm
11:05 AM 50.9°F10.5°C 37.5°F3.1°C 60% 2.5 mph WSW4.0 kmh WSW 8.3 mph13.4 kmh 30.13 in1020.3 mb 0.00 in0.0 mm 0.00 in0.0 mm 0.00 in0.0 mm
11:10 AM 51.1°F10.6°C 36.8°F2.7°C 58% 3.0 mph W4.8 kmh W 9.2 mph14.8 kmh 30.13 in1020.3 mb 0.00 in0.0 mm 0.00 in0.0 mm 0.00 in0.0 mm
11:15 AM 51.3°F10.7°C 37.9°F3.3°C 60% 2.6 mph W4.2 kmh W 9.2 mph14.8 kmh 30.14 in1020.7 mb 0.00 in0.0 mm 0.00 in0.0 mm 0.00 in0.0 mm
11:20 AM 51.4°F10.8°C 37.2°F2.9°C 58% 2.1 mph SW3.4 kmh SW 6.0 mph9.7 kmh 30.13 in1020.3 mb 0.00 in0.0 mm 0.00 in0.0 mm 0.00 in0.0 mm
11:25 AM 51.4°F10.8°C 37.2°F2.9°C 58% 2.8 mph SW4.5 kmh SW 6.9 mph11.1 kmh 30.13 in1020.3 mb 0.00 in0.0 mm 0.00 in0.0 mm 0.00 in0.0 mm
11:30 AM 51.6°F10.9°C 36.9°F2.7°C 57% 3.1 mph WSW5.0 kmh WSW 7.6 mph12.2 kmh 30.13 in1020.3 mb 0.00 in0.0 mm 0.00 in0.0 mm 0.00 in0.0 mm
11:35 AM 52.0°F11.1°C 38.1°F3.4°C 59% 2.3 mph SW3.7 kmh SW 7.6 mph12.2 kmh 30.13 in1020.3 mb 0.00 in0.0 mm 0.00 in0.0 mm 0.00 in0.0 mm
11:40 AM 52.2°F11.2°C 37.4°F3.0°C 57% 1.7 mph WSW2.7 kmh WSW 5.4 mph8.7 kmh 30.13 in1020.3 mb 0.00 in0.0 mm 0.00 in0.0 mm 0.00 in0.0 mm
11:45 AM 52.5°F11.4°C 37.7°F3.2°C 57% 2.6 mph W4.2 kmh W 7.6 mph12.2 kmh 30.13 in1020.3 mb 0.00 in0.0 mm 0.00 in0.0 mm 0.00 in0.0 mm
11:50 AM 52.7°F11.5°C 37.5°F3.1°C 56% 3.1 mph WNW5.0 kmh WNW 7.6 mph12.2 kmh 30.13 in1020.3 mb 0.00 in0.0 mm 0.00 in0.0 mm 0.00 in0.0 mm
11:55 AM 53.1°F11.7°C 37.8°F3.2°C 56% 2.7 mph NW4.3 kmh NW 6.0 mph9.7 kmh 30.12 in1020.0 mb 0.00 in0.0 mm 0.00 in0.0 mm 0.00 in0.0 mm
12:00 PM 53.2°F11.8°C 37.5°F3.1°C 55% 2.0 mph W3.2 kmh W 6.0 mph9.7 kmh 30.13 in1020.3 mb 0.00 in0.0 mm 0.00 in0.0 mm 0.00 in0.0 mm
12:05 PM 53.2°F11.8°C 37.0°F2.8°C 54% 2.1 mph W3.4 kmh W 7.6 mph12.2 kmh 30.13 in1020.3 mb 0.00 in0.0 mm 0.00 in0.0 mm 0.00 in0.0 mm
12:10 PM 52.9°F11.6°C 36.7°F2.6°C 54% 2.3 mph WNW3.7 kmh WNW 7.6 mph12.2 kmh 30.12 in1020.0 mb 0.00 in0.0 mm 0.00 in0.0 mm 0.00 in0.0 mm
12:15 PM 53.1°F11.7°C 36.4°F2.4°C 53% 2.0 mph W3.2 kmh W 6.0 mph9.7 kmh 30.12 in1020.0 mb 0.00 in0.0 mm 0.00 in0.0 mm 0.00 in0.0 mm
12:20 PM 53.1°F11.7°C 35.9°F2.2°C 52% 2.3 mph WNW3.7 kmh WNW 9.8 mph15.8 kmh 30.12 in1020.0 mb 0.00 in0.0 mm 0.00 in0.0 mm 0.00 in0.0 mm
12:25 PM 52.9°F11.6°C 36.2°F2.3°C 53% 2.6 mph N4.2 kmh N 9.8 mph15.8 kmh 30.12 in1020.0 mb 0.00 in0.0 mm 0.00 in0.0 mm 0.00 in0.0 mm
12:30 PM 53.4°F11.9°C 36.2°F2.3°C 52% 2.5 mph NNW4.0 kmh NNW 7.6 mph12.2 kmh 30.12 in1020.0 mb 0.00 in0.0 mm 0.00 in0.0 mm 0.00 in0.0 mm
12:35 PM 53.6°F12.0°C 36.4°F2.4°C 52% 2.3 mph NW3.7 kmh NW 6.9 mph11.1 kmh 30.11 in1019.6 mb 0.00 in0.0 mm 0.00 in0.0 mm 0.00 in0.0 mm
12:40 PM 53.8°F12.1°C 36.1°F2.3°C 51% 2.5 mph NW4.0 kmh NW 9.2 mph14.8 kmh 30.11 in1019.6 mb 0.00 in0.0 mm 0.00 in0.0 mm 0.00 in0.0 mm
12:45 PM 54.0°F12.2°C 36.7°F2.6°C 52% 3.0 mph NW4.8 kmh NW 9.2 mph14.8 kmh 30.11 in1019.6 mb 0.00 in0.0 mm 0.00 in0.0 mm 0.00 in0.0 mm
12:50 PM 54.1°F12.3°C 34.9°F1.6°C 48% 3.6 mph NNW5.8 kmh NNW 9.2 mph14.8 kmh 30.11 in1019.6 mb 0.00 in0.0 mm 0.00 in0.0 mm 0.00 in0.0 mm
12:55 PM 54.3°F12.4°C 36.6°F2.6°C 51% 3.1 mph NW5.0 kmh NW 8.3 mph13.4 kmh 30.11 in1019.6 mb 0.00 in0.0 mm 0.00 in0.0 mm 0.00 in0.0 mm
01:00 PM 54.3°F12.4°C 35.6°F2.0°C 49% 2.4 mph W3.9 kmh W 6.0 mph9.7 kmh 30.11 in1019.6 mb 0.00 in0.0 mm 0.00 in0.0 mm 0.00 in0.0 mm
01:05 PM 54.5°F12.5°C 35.7°F2.1°C 49% 2.6 mph WNW4.2 kmh WNW 6.0 mph9.7 kmh 30.10 in1019.3 mb 0.00 in0.0 mm 0.00 in0.0 mm 0.00 in0.0 mm
01:10 PM 54.5°F12.5°C 35.7°F2.1°C 49% 2.1 mph NW3.4 kmh NW 6.0 mph9.7 kmh 30.10 in1019.3 mb 0.00 in0.0 mm 0.00 in0.0 mm 0.00 in0.0 mm
01:15 PM 54.7°F12.6°C 36.4°F2.4°C 50% 2.5 mph WNW4.0 kmh WNW 11.4 mph18.3 kmh 30.10 in1019.3 mb 0.00 in0.0 mm 0.00 in0.0 mm 0.00 in0.0 mm
01:20 PM 54.9°F12.7°C 36.1°F2.3°C 49% 3.8 mph WNW6.1 kmh WNW 11.4 mph18.3 kmh 30.10 in1019.3 mb 0.00 in0.0 mm 0.00 in0.0 mm 0.00 in0.0 mm
01:25 PM 54.9°F12.7°C 33.4°F0.8°C 44% 3.8 mph NW6.1 kmh NW 9.2 mph14.8 kmh 30.10 in1019.3 mb 0.00 in0.0 mm 0.00 in0.0 mm 0.00 in0.0 mm
01:30 PM 54.9°F12.7°C 32.8°F0.4°C 43% 4.1 mph NW6.6 kmh NW 10.7 mph17.2 kmh 30.10 in1019.3 mb 0.00 in0.0 mm 0.00 in0.0 mm 0.00 in0.0 mm
01:35 PM 54.9°F12.7°C 33.9°F1.1°C 45% 4.7 mph NW7.6 kmh NW 10.7 mph17.2 kmh 30.10 in1019.3 mb 0.00 in0.0 mm 0.00 in0.0 mm 0.00 in0.0 mm
01:40 PM 54.9°F12.7°C 32.8°F0.4°C 43% 4.5 mph N7.2 kmh N 9.2 mph14.8 kmh 30.10 in1019.3 mb 0.00 in0.0 mm 0.00 in0.0 mm 0.00 in0.0 mm
01:45 PM 55.0°F12.8°C 34.6°F1.4°C 46% 4.2 mph NNW6.8 kmh NNW 10.7 mph17.2 kmh 30.10 in1019.3 mb 0.00 in0.0 mm 0.00 in0.0 mm 0.00 in0.0 mm
01:50 PM 54.9°F12.7°C 32.8°F0.4°C 43% 5.1 mph NW8.2 kmh NW 11.4 mph18.3 kmh 30.10 in1019.3 mb 0.00 in0.0 mm 0.00 in0.0 mm 0.00 in0.0 mm
01:55 PM 54.9°F12.7°C 33.9°F1.1°C 45% 5.7 mph NW9.2 kmh NW 11.4 mph18.3 kmh 30.10 in1019.3 mb 0.00 in0.0 mm 0.00 in0.0 mm 0.00 in0.0 mm
02:00 PM 54.7°F12.6°C 32.6°F0.3°C 43% 5.7 mph NNW9.2 kmh NNW 11.4 mph18.3 kmh 30.10 in1019.3 mb 0.00 in0.0 mm 0.00 in0.0 mm 0.00 in0.0 mm
02:05 PM 54.9°F12.7°C 32.8°F0.4°C 43% 5.3 mph NNW8.5 kmh NNW 11.4 mph18.3 kmh 30.10 in1019.3 mb 0.00 in0.0 mm 0.00 in0.0 mm 0.00 in0.0 mm
02:10 PM 54.9°F12.7°C 32.2°F0.1°C 42% 4.3 mph NNW6.9 kmh NNW 10.7 mph17.2 kmh 30.10 in1019.3 mb 0.00 in0.0 mm 0.00 in0.0 mm 0.00 in0.0 mm
02:15 PM 54.9°F12.7°C 31.6°F-0.2°C 41% 4.5 mph NW7.2 kmh NW 9.8 mph15.8 kmh 30.10 in1019.3 mb 0.00 in0.0 mm 0.00 in0.0 mm 0.00 in0.0 mm
02:20 PM 55.0°F12.8°C 33.5°F0.8°C 44% 4.4 mph NW7.1 kmh NW 8.3 mph13.4 kmh 30.10 in1019.3 mb 0.00 in0.0 mm 0.00 in0.0 mm 0.00 in0.0 mm
02:25 PM 55.0°F12.8°C 32.4°F0.2°C 42% 4.3 mph NW6.9 kmh NW 8.3 mph13.4 kmh 30.10 in1019.3 mb 0.00 in0.0 mm 0.00 in0.0 mm 0.00 in0.0 mm
02:30 PM 55.0°F12.8°C 32.4°F0.2°C 42% 4.4 mph NW7.1 kmh NW 9.8 mph15.8 kmh 30.10 in1019.3 mb 0.00 in0.0 mm 0.00 in0.0 mm 0.00 in0.0 mm
02:35 PM 55.0°F12.8°C 32.4°F0.2°C 42% 4.1 mph NW6.6 kmh NW 9.8 mph15.8 kmh 30.10 in1019.3 mb 0.00 in0.0 mm 0.00 in0.0 mm 0.00 in0.0 mm
02:40 PM 54.7°F12.6°C 32.1°F0.1°C 42% 4.4 mph NW7.1 kmh NW 9.8 mph15.8 kmh 30.10 in1019.3 mb 0.00 in0.0 mm 0.00 in0.0 mm 0.00 in0.0 mm
02:45 PM 54.7°F12.6°C 31.5°F-0.3°C 41% 5.2 mph NW8.4 kmh NW 12.1 mph19.5 kmh 30.10 in1019.3 mb 0.00 in0.0 mm 0.00 in0.0 mm 0.00 in0.0 mm
02:50 PM 54.7°F12.6°C 33.2°F0.7°C 44% 5.0 mph NW8.0 kmh NW 12.1 mph19.5 kmh 30.10 in1019.3 mb 0.00 in0.0 mm 0.00 in0.0 mm 0.00 in0.0 mm
02:55 PM 54.7°F12.6°C 31.5°F-0.3°C 41% 4.6 mph NW7.4 kmh NW 10.7 mph17.2 kmh 30.10 in1019.3 mb 0.00 in0.0 mm 0.00 in0.0 mm 0.00 in0.0 mm
03:00 PM 54.5°F12.5°C 32.5°F0.3°C 43% 4.3 mph NNW6.9 kmh NNW 10.7 mph17.2 kmh 30.10 in1019.3 mb 0.00 in0.0 mm 0.00 in0.0 mm 0.00 in0.0 mm
03:05 PM 54.5°F12.5°C 32.5°F0.3°C 43% 4.5 mph N7.2 kmh N 11.4 mph18.3 kmh 30.10 in1019.3 mb 0.00 in0.0 mm 0.00 in0.0 mm 0.00 in0.0 mm
03:10 PM 54.5°F12.5°C 33.0°F0.6°C 44% 5.3 mph NW8.5 kmh NW 11.4 mph18.3 kmh 30.10 in1019.3 mb 0.00 in0.0 mm 0.00 in0.0 mm 0.00 in0.0 mm
03:15 PM 54.3°F12.4°C 32.9°F0.5°C 44% 5.2 mph NW8.4 kmh NW 11.4 mph18.3 kmh 30.10 in1019.3 mb 0.00 in0.0 mm 0.00 in0.0 mm 0.00 in0.0 mm
03:20 PM 54.3°F12.4°C 32.3°F0.2°C 43% 4.7 mph NW7.6 kmh NW 9.8 mph15.8 kmh 30.10 in1019.3 mb 0.00 in0.0 mm 0.00 in0.0 mm 0.00 in0.0 mm
03:25 PM 54.1°F12.3°C 33.3°F0.7°C 45% 5.0 mph NNW8.0 kmh NNW 10.7 mph17.2 kmh 30.10 in1019.3 mb 0.00 in0.0 mm 0.00 in0.0 mm 0.00 in0.0 mm
03:30 PM 54.1°F12.3°C 33.3°F0.7°C 45% 5.2 mph NNW8.4 kmh NNW 10.7 mph17.2 kmh 30.10 in1019.3 mb 0.00 in0.0 mm 0.00 in0.0 mm 0.00 in0.0 mm
03:35 PM 54.1°F12.3°C 33.3°F0.7°C 45% 4.6 mph NNW7.4 kmh NNW 9.8 mph15.8 kmh 30.10 in1019.3 mb 0.00 in0.0 mm 0.00 in0.0 mm 0.00 in0.0 mm
03:40 PM 54.0°F12.2°C 32.6°F0.3°C 44% 4.7 mph NNW7.6 kmh NNW 9.8 mph15.8 kmh 30.10 in1019.3 mb 0.00 in0.0 mm 0.00 in0.0 mm 0.00 in0.0 mm
03:45 PM 54.0°F12.2°C 32.6°F0.3°C 44% 5.3 mph NNW8.5 kmh NNW 9.8 mph15.8 kmh 30.10 in1019.3 mb 0.00 in0.0 mm 0.00 in0.0 mm 0.00 in0.0 mm
03:50 PM 53.8°F12.1°C 32.4°F0.2°C 44% 4.6 mph NNW7.4 kmh NNW 9.2 mph14.8 kmh 30.10 in1019.3 mb 0.00 in0.0 mm 0.00 in0.0 mm 0.00 in0.0 mm
03:55 PM 54.0°F12.2°C 32.6°F0.3°C 44% 3.4 mph NNW5.5 kmh NNW 6.9 mph11.1 kmh 30.10 in1019.3 mb 0.00 in0.0 mm 0.00 in0.0 mm 0.00 in0.0 mm
04:00 PM 53.8°F12.1°C 32.4°F0.2°C 44% 3.4 mph NW5.5 kmh NW 7.6 mph12.2 kmh 30.10 in1019.3 mb 0.00 in0.0 mm 0.00 in0.0 mm 0.00 in0.0 mm
04:05 PM 53.6°F12.0°C 32.8°F0.4°C 45% 3.8 mph NW6.1 kmh NW 7.6 mph12.2 kmh 30.10 in1019.3 mb 0.00 in0.0 mm 0.00 in0.0 mm 0.00 in0.0 mm
04:10 PM 53.6°F12.0°C 32.8°F0.4°C 45% 3.6 mph NW5.8 kmh NW 7.6 mph12.2 kmh 30.10 in1019.3 mb 0.00 in0.0 mm 0.00 in0.0 mm 0.00 in0.0 mm
04:15 PM 53.4°F11.9°C 32.1°F0.1°C 44% 3.4 mph NW5.5 kmh NW 6.9 mph11.1 kmh 30.10 in1019.3 mb 0.00 in0.0 mm 0.00 in0.0 mm 0.00 in0.0 mm
04:20 PM 53.2°F11.8°C 32.5°F0.3°C 45% 2.9 mph NW4.7 kmh NW 6.9 mph11.1 kmh 30.10 in1019.3 mb 0.00 in0.0 mm 0.00 in0.0 mm 0.00 in0.0 mm
04:25 PM 53.1°F11.7°C 32.8°F0.4°C 46% 2.3 mph NW3.7 kmh NW 6.9 mph11.1 kmh 30.10 in1019.3 mb 0.00 in0.0 mm 0.00 in0.0 mm 0.00 in0.0 mm
04:30 PM 52.9°F11.6°C 32.7°F0.4°C 46% 1.4 mph NW2.3 kmh NW 6.9 mph11.1 kmh 30.10 in1019.3 mb 0.00 in0.0 mm 0.00 in0.0 mm 0.00 in0.0 mm
04:35 PM 52.7°F11.5°C 32.0°F0.0°C 45% 0.5 mph NW0.8 kmh NW 3.8 mph6.1 kmh 30.09 in1019.0 mb 0.00 in0.0 mm 0.00 in0.0 mm 0.00 in0.0 mm
04:40 PM 52.3°F11.3°C 32.2°F0.1°C 46% 0.2 mph W0.3 kmh W 2.2 mph3.5 kmh 30.09 in1019.0 mb 0.00 in0.0 mm 0.00 in0.0 mm 0.00 in0.0 mm
04:45 PM 52.3°F11.3°C 33.2°F0.7°C 48% 0.5 mph WSW0.8 kmh WSW 3.8 mph6.1 kmh 30.09 in1019.0 mb 0.00 in0.0 mm 0.00 in0.0 mm 0.00 in0.0 mm
04:50 PM 52.2°F11.2°C 33.6°F0.9°C 49% 0.6 mph W1.0 kmh W 3.8 mph6.1 kmh 30.09 in1019.0 mb 0.00 in0.0 mm 0.00 in0.0 mm 0.00 in0.0 mm
04:55 PM 52.0°F11.1°C 33.9°F1.1°C 50% 0.6 mph W1.0 kmh W 3.1 mph5.0 kmh 30.09 in1019.0 mb 0.00 in0.0 mm 0.00 in0.0 mm 0.00 in0.0 mm
05:00 PM 51.8°F11.0°C 34.3°F1.3°C 51% 0.8 mph W1.3 kmh W 3.1 mph5.0 kmh 30.09 in1019.0 mb 0.00 in0.0 mm 0.00 in0.0 mm 0.00 in0.0 mm
05:05 PM 51.6°F10.9°C 34.1°F1.2°C 51% 0.6 mph W1.0 kmh W 2.2 mph3.5 kmh 30.09 in1019.0 mb 0.00 in0.0 mm 0.00 in0.0 mm 0.00 in0.0 mm
05:10 PM 51.4°F10.8°C 34.4°F1.3°C 52% 0.7 mph W1.1 kmh W 3.1 mph5.0 kmh 30.09 in1019.0 mb 0.00 in0.0 mm 0.00 in0.0 mm 0.00 in0.0 mm
05:15 PM 51.3°F10.7°C 34.2°F1.2°C 52% 0.9 mph W1.4 kmh W 3.1 mph5.0 kmh 30.09 in1019.0 mb 0.00 in0.0 mm 0.00 in0.0 mm 0.00 in0.0 mm
05:20 PM 51.1°F10.6°C 34.6°F1.4°C 53% 0.9 mph W1.4 kmh W 3.1 mph5.0 kmh 30.09 in1019.0 mb 0.00 in0.0 mm 0.00 in0.0 mm 0.00 in0.0 mm
05:25 PM 50.7°F10.4°C 35.2°F1.8°C 55% 1.1 mph WSW1.8 kmh WSW 3.1 mph5.0 kmh 30.09 in1019.0 mb 0.00 in0.0 mm 0.00 in0.0 mm 0.00 in0.0 mm
05:30 PM 50.4°F10.2°C 35.3°F1.8°C 56% 1.1 mph SW1.8 kmh SW 3.1 mph5.0 kmh 30.09 in1019.0 mb 0.00 in0.0 mm 0.00 in0.0 mm 0.00 in0.0 mm
05:35 PM 50.0°F10.0°C 35.4°F1.9°C 57% 1.6 mph SW2.6 kmh SW 3.8 mph6.1 kmh 30.10 in1019.3 mb 0.00 in0.0 mm 0.00 in0.0 mm 0.00 in0.0 mm
05:40 PM 49.1°F9.5°C 35.4°F1.9°C 59% 2.0 mph SW3.2 kmh SW 3.8 mph6.1 kmh 30.10 in1019.3 mb 0.00 in0.0 mm 0.00 in0.0 mm 0.00 in0.0 mm
05:45 PM 48.6°F9.2°C 35.7°F2.1°C 61% 1.7 mph SW2.7 kmh SW 3.8 mph6.1 kmh 30.11 in1019.6 mb 0.00 in0.0 mm 0.00 in0.0 mm 0.00 in0.0 mm
05:50 PM 47.8°F8.8°C 35.9°F2.2°C 63% 2.0 mph SW3.2 kmh SW 6.0 mph9.7 kmh 30.11 in1019.6 mb 0.00 in0.0 mm 0.00 in0.0 mm 0.00 in0.0 mm
05:55 PM 46.9°F8.3°C 35.4°F1.9°C 64% 2.8 mph SW4.5 kmh SW 6.0 mph9.7 kmh 30.11 in1019.6 mb 0.00 in0.0 mm 0.00 in0.0 mm 0.00 in0.0 mm
06:00 PM 46.2°F7.9°C 35.5°F1.9°C 66% 2.7 mph SW4.3 kmh SW 6.0 mph9.7 kmh 30.11 in1019.6 mb 0.00 in0.0 mm 0.00 in0.0 mm 0.00 in0.0 mm
06:05 PM 45.9°F7.7°C 35.5°F1.9°C 67% 2.5 mph SW4.0 kmh SW 4.5 mph7.2 kmh 30.11 in1019.6 mb 0.00 in0.0 mm 0.00 in0.0 mm 0.00 in0.0 mm
06:10 PM 45.7°F7.6°C 35.0°F1.7°C 66% 2.5 mph SW4.0 kmh SW 4.5 mph7.2 kmh 30.11 in1019.6 mb 0.00 in0.0 mm 0.00 in0.0 mm 0.00 in0.0 mm
06:15 PM 45.5°F7.5°C 35.2°F1.8°C 67% 2.0 mph SW3.2 kmh SW 4.5 mph7.2 kmh 30.11 in1019.6 mb 0.00 in0.0 mm 0.00 in0.0 mm 0.00 in0.0 mm
06:20 PM 45.1°F7.3°C 35.2°F1.8°C 68% 1.3 mph SW2.1 kmh SW 3.8 mph6.1 kmh 30.11 in1019.6 mb 0.00 in0.0 mm 0.00 in0.0 mm 0.00 in0.0 mm
06:25 PM 45.0°F7.2°C 35.0°F1.7°C 68% 0.6 mph SW1.0 kmh SW 2.2 mph3.5 kmh 30.11 in1019.6 mb 0.00 in0.0 mm 0.00 in0.0 mm 0.00 in0.0 mm
06:30 PM 44.6°F7.0°C 35.4°F1.9°C 70% Calm Calm 2.2 mph3.5 kmh 30.11 in1019.6 mb 0.00 in0.0 mm 0.00 in0.0 mm 0.00 in0.0 mm
06:35 PM 44.1°F6.7°C 34.9°F1.6°C 70% 0.1 mph SW0.2 kmh SW 1.6 mph2.6 kmh 30.11 in1019.6 mb 0.00 in0.0 mm 0.00 in0.0 mm 0.00 in0.0 mm
06:40 PM 43.7°F6.5°C 35.3°F1.8°C 72% 0.1 mph SW0.2 kmh SW 1.6 mph2.6 kmh 30.12 in1020.0 mb 0.00 in0.0 mm 0.00 in0.0 mm 0.00 in0.0 mm
06:45 PM 43.9°F6.6°C 35.4°F1.9°C 72% 0.1 mph SW0.2 kmh SW 3.1 mph5.0 kmh 30.12 in1020.0 mb 0.00 in0.0 mm 0.00 in0.0 mm 0.00 in0.0 mm
06:50 PM 43.9°F6.6°C 35.4°F1.9°C 72% 0.8 mph WSW1.3 kmh WSW 3.8 mph6.1 kmh 30.12 in1020.0 mb 0.00 in0.0 mm 0.00 in0.0 mm 0.00 in0.0 mm
06:55 PM 43.7°F6.5°C 35.3°F1.8°C 72% 1.6 mph WSW2.6 kmh WSW 5.4 mph8.7 kmh 30.12 in1020.0 mb 0.00 in0.0 mm 0.00 in0.0 mm 0.00 in0.0 mm
07:00 PM 43.7°F6.5°C 34.9°F1.6°C 71% 1.7 mph SW2.7 kmh SW 5.4 mph8.7 kmh 30.13 in1020.3 mb 0.00 in0.0 mm 0.00 in0.0 mm 0.00 in0.0 mm
07:05 PM 43.5°F6.4°C 34.8°F1.6°C 71% 2.1 mph WSW3.4 kmh WSW 5.4 mph8.7 kmh 30.13 in1020.3 mb 0.00 in0.0 mm 0.00 in0.0 mm 0.00 in0.0 mm
07:10 PM 43.5°F6.4°C 34.8°F1.6°C 71% 2.5 mph W4.0 kmh W 5.4 mph8.7 kmh 30.13 in1020.3 mb 0.00 in0.0 mm 0.00 in0.0 mm 0.00 in0.0 mm
07:15 PM 43.3°F6.3°C 34.6°F1.4°C 71% 2.0 mph WSW3.2 kmh WSW 5.4 mph8.7 kmh 30.13 in1020.3 mb 0.00 in0.0 mm 0.00 in0.0 mm 0.00 in0.0 mm
07:20 PM 43.2°F6.2°C 34.4°F1.3°C 71% 2.2 mph WSW3.5 kmh WSW 5.4 mph8.7 kmh 30.13 in1020.3 mb 0.00 in0.0 mm 0.00 in0.0 mm 0.00 in0.0 mm
07:25 PM 42.8°F6.0°C 34.4°F1.3°C 72% 2.3 mph WSW3.7 kmh WSW 6.0 mph9.7 kmh 30.13 in1020.3 mb 0.00 in0.0 mm 0.00 in0.0 mm 0.00 in0.0 mm
07:30 PM 43.0°F6.1°C 34.2°F1.2°C 71% 2.6 mph WSW4.2 kmh WSW 6.9 mph11.1 kmh 30.14 in1020.7 mb 0.00 in0.0 mm 0.00 in0.0 mm 0.00 in0.0 mm
07:35 PM 43.0°F6.1°C 34.2°F1.2°C 71% 2.5 mph WSW4.0 kmh WSW 6.9 mph11.1 kmh 30.14 in1020.7 mb 0.00 in0.0 mm 0.00 in0.0 mm 0.00 in0.0 mm
07:40 PM 42.8°F6.0°C 34.1°F1.2°C 71% 1.7 mph W2.7 kmh W 5.4 mph8.7 kmh 30.14 in1020.7 mb 0.00 in0.0 mm 0.00 in0.0 mm 0.00 in0.0 mm
07:45 PM 42.8°F6.0°C 34.1°F1.2°C 71% 1.3 mph WSW2.1 kmh WSW 4.5 mph7.2 kmh 30.14 in1020.7 mb 0.00 in0.0 mm 0.00 in0.0 mm 0.00 in0.0 mm
07:50 PM 42.8°F6.0°C 34.1°F1.2°C 71% 0.7 mph SW1.1 kmh SW 3.8 mph6.1 kmh 30.14 in1020.7 mb 0.00 in0.0 mm 0.00 in0.0 mm 0.00 in0.0 mm
07:55 PM 42.6°F5.9°C 33.9°F1.1°C 71% 0.3 mph SW0.5 kmh SW 2.2 mph3.5 kmh 30.14 in1020.7 mb 0.00 in0.0 mm 0.00 in0.0 mm 0.00 in0.0 mm
08:00 PM 42.3°F5.7°C 33.9°F1.1°C 72% 0.7 mph SW1.1 kmh SW 3.8 mph6.1 kmh 30.14 in1020.7 mb 0.00 in0.0 mm 0.00 in0.0 mm 0.00 in0.0 mm
08:05 PM 41.9°F5.5°C 33.9°F1.1°C 73% 1.0 mph WSW1.6 kmh WSW 3.8 mph6.1 kmh 30.14 in1020.7 mb 0.00 in0.0 mm 0.00 in0.0 mm 0.00 in0.0 mm
08:10 PM 41.7°F5.4°C 34.1°F1.2°C 74% 1.1 mph WSW1.8 kmh WSW 3.8 mph6.1 kmh 30.14 in1020.7 mb 0.00 in0.0 mm 0.00 in0.0 mm 0.00 in0.0 mm
08:15 PM 41.9°F5.5°C 34.2°F1.2°C 74% 1.1 mph SW1.8 kmh SW 3.8 mph6.1 kmh 30.14 in1020.7 mb 0.00 in0.0 mm 0.00 in0.0 mm 0.00 in0.0 mm
08:20 PM 41.7°F5.4°C 33.7°F0.9°C 73% 0.9 mph SW1.4 kmh SW 3.8 mph6.1 kmh 30.14 in1020.7 mb 0.00 in0.0 mm 0.00 in0.0 mm 0.00 in0.0 mm
08:25 PM 41.7°F5.4°C 33.7°F0.9°C 73% 1.5 mph WSW2.4 kmh WSW 6.0 mph9.7 kmh 30.14 in1020.7 mb 0.00 in0.0 mm 0.00 in0.0 mm 0.00 in0.0 mm
08:30 PM 41.5°F5.3°C 33.5°F0.8°C 73% 2.1 mph W3.4 kmh W 6.0 mph9.7 kmh 30.15 in1021.0 mb 0.00 in0.0 mm 0.00 in0.0 mm 0.00 in0.0 mm
08:35 PM 41.5°F5.3°C 33.5°F0.8°C 73% 1.8 mph W2.9 kmh W 4.5 mph7.2 kmh 30.15 in1021.0 mb 0.00 in0.0 mm 0.00 in0.0 mm 0.00 in0.0 mm
08:40 PM 41.5°F5.3°C 33.5°F0.8°C 73% 1.9 mph W3.1 kmh W 5.4 mph8.7 kmh 30.15 in1021.0 mb 0.00 in0.0 mm 0.00 in0.0 mm 0.00 in0.0 mm
08:45 PM 41.5°F5.3°C 33.5°F0.8°C 73% 2.3 mph WSW3.7 kmh WSW 6.0 mph9.7 kmh 30.15 in1021.0 mb 0.00 in0.0 mm 0.00 in0.0 mm 0.00 in0.0 mm
08:50 PM 41.4°F5.2°C 33.4°F0.8°C 73% 2.0 mph WSW3.2 kmh WSW 6.0 mph9.7 kmh 30.14 in1020.7 mb 0.00 in0.0 mm 0.00 in0.0 mm 0.00 in0.0 mm
08:55 PM 41.4°F5.2°C 33.7°F0.9°C 74% 1.3 mph SW2.1 kmh SW 4.5 mph7.2 kmh 30.14 in1020.7 mb 0.00 in0.0 mm 0.00 in0.0 mm 0.00 in0.0 mm
09:00 PM 41.0°F5.0°C 33.4°F0.8°C 74% 0.4 mph SW0.6 kmh SW 3.8 mph6.1 kmh 30.14 in1020.7 mb 0.00 in0.0 mm 0.00 in0.0 mm 0.00 in0.0 mm
09:05 PM 41.0°F5.0°C 33.4°F0.8°C 74% 0.1 mph SW0.2 kmh SW 2.2 mph3.5 kmh 30.15 in1021.0 mb 0.00 in0.0 mm 0.00 in0.0 mm 0.00 in0.0 mm
09:10 PM 40.6°F4.8°C 33.3°F0.7°C 75% 0.3 mph WSW0.5 kmh WSW 3.1 mph5.0 kmh 30.15 in1021.0 mb 0.00 in0.0 mm 0.00 in0.0 mm 0.00 in0.0 mm
09:15 PM 40.3°F4.6°C 33.3°F0.7°C 76% 0.4 mph WSW0.6 kmh WSW 3.1 mph5.0 kmh 30.15 in1021.0 mb 0.00 in0.0 mm 0.00 in0.0 mm 0.00 in0.0 mm
09:20 PM 40.5°F4.7°C 33.5°F0.8°C 76% 0.9 mph SW1.4 kmh SW 3.1 mph5.0 kmh 30.15 in1021.0 mb 0.00 in0.0 mm 0.00 in0.0 mm 0.00 in0.0 mm
09:25 PM 40.3°F4.6°C 33.3°F0.7°C 76% 1.2 mph S1.9 kmh S 3.8 mph6.1 kmh 30.15 in1021.0 mb 0.00 in0.0 mm 0.00 in0.0 mm 0.00 in0.0 mm
09:30 PM 39.0°F3.9°C 32.8°F0.4°C 78% 1.0 mph SE1.6 kmh SE 3.8 mph6.1 kmh 30.15 in1021.0 mb 0.00 in0.0 mm 0.00 in0.0 mm 0.00 in0.0 mm
09:35 PM 39.0°F3.9°C 33.4°F0.8°C 80% 0.4 mph SE0.6 kmh SE 3.1 mph5.0 kmh 30.15 in1021.0 mb 0.00 in0.0 mm 0.00 in0.0 mm 0.00 in0.0 mm
09:40 PM 38.3°F3.5°C 32.4°F0.2°C 79% 0.1 mph SE0.2 kmh SE 1.6 mph2.6 kmh 30.15 in1021.0 mb 0.00 in0.0 mm 0.00 in0.0 mm 0.00 in0.0 mm
09:45 PM 37.8°F3.2°C 33.1°F0.6°C 83% 0.1 mph ESE0.2 kmh ESE 1.6 mph2.6 kmh 30.15 in1021.0 mb 0.00 in0.0 mm 0.00 in0.0 mm 0.00 in0.0 mm
09:50 PM 37.6°F3.1°C 32.9°F0.5°C 83% Calm Calm 1.6 mph2.6 kmh 30.15 in1021.0 mb 0.00 in0.0 mm 0.00 in0.0 mm 0.00 in0.0 mm
09:55 PM 37.6°F3.1°C 33.2°F0.7°C 84% 0.1 mph SW0.2 kmh SW 1.6 mph2.6 kmh 30.15 in1021.0 mb 0.00 in0.0 mm 0.00 in0.0 mm 0.00 in0.0 mm
10:00 PM 37.2°F2.9°C 32.8°F0.4°C 84% 0.1 mph S0.2 kmh S 1.6 mph2.6 kmh 30.15 in1021.0 mb 0.00 in0.0 mm 0.00 in0.0 mm 0.00 in0.0 mm
10:05 PM 36.9°F2.7°C 32.8°F0.4°C 85% 0.1 mph SSW0.2 kmh SSW 1.6 mph2.6 kmh 30.14 in1020.7 mb 0.00 in0.0 mm 0.00 in0.0 mm 0.00 in0.0 mm
10:10 PM 37.4°F3.0°C 33.6°F0.9°C 86% 0.1 mph SW0.2 kmh SW 1.6 mph2.6 kmh 30.14 in1020.7 mb 0.00 in0.0 mm 0.00 in0.0 mm 0.00 in0.0 mm
10:15 PM 37.8°F3.2°C 33.7°F0.9°C 85% 0.1 mph WSW0.2 kmh WSW 1.6 mph2.6 kmh 30.14 in1020.7 mb 0.00 in0.0 mm 0.00 in0.0 mm 0.00 in0.0 mm
10:20 PM 37.9°F3.3°C 33.8°F1.0°C 85% 0.1 mph W0.2 kmh W 1.6 mph2.6 kmh 30.14 in1020.7 mb 0.00 in0.0 mm 0.00 in0.0 mm 0.00 in0.0 mm
10:25 PM 38.1°F3.4°C 33.7°F0.9°C 84% 0.1 mph W0.2 kmh W 1.6 mph2.6 kmh 30.14 in1020.7 mb 0.00 in0.0 mm 0.00 in0.0 mm 0.00 in0.0 mm
10:30 PM 38.3°F3.5°C 33.6°F0.9°C 83% 0.3 mph W0.5 kmh W 2.2 mph3.5 kmh 30.14 in1020.7 mb 0.00 in0.0 mm 0.00 in0.0 mm 0.00 in0.0 mm
10:35 PM 38.3°F3.5°C 33.6°F0.9°C 83% 0.4 mph WSW0.6 kmh WSW 3.8 mph6.1 kmh 30.14 in1020.7 mb 0.00 in0.0 mm 0.00 in0.0 mm 0.00 in0.0 mm
10:40 PM 38.5°F3.6°C 33.2°F0.7°C 81% 1.1 mph WSW1.8 kmh WSW 4.5 mph7.2 kmh 30.14 in1020.7 mb 0.00 in0.0 mm 0.00 in0.0 mm 0.00 in0.0 mm
10:45 PM 38.5°F3.6°C 33.2°F0.7°C 81% 1.2 mph WSW1.9 kmh WSW 4.5 mph7.2 kmh 30.14 in1020.7 mb 0.00 in0.0 mm 0.00 in0.0 mm 0.00 in0.0 mm
10:50 PM 38.7°F3.7°C 33.0°F0.6°C 80% 1.2 mph SW1.9 kmh SW 4.5 mph7.2 kmh 30.14 in1020.7 mb 0.00 in0.0 mm 0.00 in0.0 mm 0.00 in0.0 mm
10:55 PM 38.7°F3.7°C 32.7°F0.4°C 79% 1.9 mph SW3.1 kmh SW 4.5 mph7.2 kmh 30.14 in1020.7 mb 0.00 in0.0 mm 0.00 in0.0 mm 0.00 in0.0 mm
11:00 PM 38.7°F3.7°C 32.7°F0.4°C 79% 1.8 mph SW2.9 kmh SW 4.5 mph7.2 kmh 30.15 in1021.0 mb 0.00 in0.0 mm 0.00 in0.0 mm 0.00 in0.0 mm
11:05 PM 38.5°F3.6°C 32.5°F0.3°C 79% 1.7 mph SW2.7 kmh SW 4.5 mph7.2 kmh 30.15 in1021.0 mb 0.00 in0.0 mm 0.00 in0.0 mm 0.00 in0.0 mm
11:10 PM 38.3°F3.5°C 32.7°F0.4°C 80% 1.6 mph SW2.6 kmh SW 3.1 mph5.0 kmh 30.15 in1021.0 mb 0.00 in0.0 mm 0.00 in0.0 mm 0.00 in0.0 mm
11:15 PM 38.3°F3.5°C 32.7°F0.4°C 80% 1.4 mph SW2.3 kmh SW 3.1 mph5.0 kmh 30.15 in1021.0 mb 0.00 in0.0 mm 0.00 in0.0 mm 0.00 in0.0 mm
11:20 PM 38.1°F3.4°C 32.8°F0.4°C 81% 1.1 mph SW1.8 kmh SW 3.1 mph5.0 kmh 30.14 in1020.7 mb 0.00 in0.0 mm 0.00 in0.0 mm 0.00 in0.0 mm
11:25 PM 37.9°F3.3°C 32.6°F0.3°C 81% 0.8 mph SSW1.3 kmh SSW 3.1 mph5.0 kmh 30.15 in1021.0 mb 0.00 in0.0 mm 0.00 in0.0 mm 0.00 in0.0 mm
11:30 PM 37.8°F3.2°C 32.8°F0.4°C 82% 0.9 mph SW1.4 kmh SW 3.1 mph5.0 kmh 30.14 in1020.7 mb 0.00 in0.0 mm 0.00 in0.0 mm 0.00 in0.0 mm
11:35 PM 37.8°F3.2°C 32.8°F0.4°C 82% 1.3 mph SW2.1 kmh SW 3.8 mph6.1 kmh 30.14 in1020.7 mb 0.00 in0.0 mm 0.00 in0.0 mm 0.00 in0.0 mm
11:40 PM 37.8°F3.2°C 32.8°F0.4°C 82% 1.4 mph SW2.3 kmh SW 3.8 mph6.1 kmh 30.14 in1020.7 mb 0.00 in0.0 mm 0.00 in0.0 mm 0.00 in0.0 mm
11:45 PM 37.6°F3.1°C 32.6°F0.3°C 82% 0.8 mph SW1.3 kmh SW 3.1 mph5.0 kmh 30.14 in1020.7 mb 0.00 in0.0 mm 0.00 in0.0 mm 0.00 in0.0 mm
11:50 PM 36.5°F2.5°C 31.8°F-0.1°C 83% 0.2 mph SW0.3 kmh SW 2.2 mph3.5 kmh 30.14 in1020.7 mb 0.00 in0.0 mm 0.00 in0.0 mm 0.00 in0.0 mm
11:55 PM 36.1°F2.3°C 32.4°F0.2°C 86% Calm Calm 0.7 mph1.1 kmh 30.14 in1020.7 mb 0.00 in0.0 mm 0.00 in0.0 mm 0.00 in0.0 mm